Maxwelton, Washington
Current Conditions -  °F | °C
As of 11:01 PM on Saturday 25 Oct 2014 (Local Time) from KPAE Reporting Station
Moderate Rain Moderate Rain  
Wind Chill: 51°   Ceiling: 4200
Heat Index: 51°   Visibility: 3mi
Dew Point: 46°   Wind: 15mph
Humidity: 83%   Direction: 160°SSE
Pressure: 29.66"   Gusts: NA
Location:  47.9614°N, 122.409°W
Report Text: KPAE 260601Z AUTO 16013KT 3SM RA OVC042 11/08 A2966 RMK AO2 P0003 T01060078
Loading
Personal Weather Stations






























Interactive Weather Map
Tropical Storm Tracking
New forecast layout! Learn more

10-Day Weather Forecast

Advertisements
Track Severe Weather on mobile